Time;durP1;ratioP1;P1;durP2;ratioP2;P2;SDS_P1;SDS_P2;PMS_P1;PMS_P2;Temp;Humidity;BMP_temperature;BMP_pressure;BME280_temperature;BME280_humidity;BME280_pressure;Samples;Min_cycle;Max_cycle;Signal;HPM_P1;HPM_P2
2022/01/28 00:00:40;;;;;;;18.40;10.20;;;;;;;0.57;83.78;98238.30;107951;1279;25400;-75
2022/01/28 00:03:08;;;;;;;18.30;8.50;;;;;;;0.60;84.11;98246.27;107962;1279;22583;-76
2022/01/28 00:05:37;;;;;;;15.80;9.00;;;;;;;0.57;84.24;98241.56;107982;1279;25377;-77
2022/01/28 00:08:05;;;;;;;16.00;8.00;;;;;;;0.55;83.94;98240.41;108030;1279;25617;-74
2022/01/28 00:10:34;;;;;;;17.20;8.80;;;;;;;0.55;83.61;98236.46;107986;1279;22630;-74
2022/01/28 00:16:01;;;;;;;18.80;11.40;;;;;;;0.61;83.76;98234.42;107977;1279;22564;-74
2022/01/28 00:39:49;;;;;;;16.60;9.70;;;;;;;0.67;83.73;98222.89;107992;1279;27745;-76
2022/01/28 00:42:17;;;;;;;16.20;8.40;;;;;;;0.71;84.06;98225.88;108002;1279;22566;-77
2022/01/28 00:44:44;;;;;;;13.20;8.00;;;;;;;0.71;83.79;98222.80;107995;1279;22664;-77
2022/01/28 00:47:10;;;;;;;13.20;7.20;;;;;;;0.69;83.61;98229.36;108018;1279;26792;-75
2022/01/28 00:49:37;;;;;;;14.50;7.10;;;;;;;0.67;83.50;98235.58;108414;1279;22567;-75
2022/01/28 00:52:04;;;;;;;17.00;7.90;;;;;;;0.66;83.25;98240.58;108005;1279;23498;-76
2022/01/28 00:54:32;;;;;;;14.10;7.80;;;;;;;0.67;83.26;98242.45;108005;1279;23944;-73
2022/01/28 00:56:58;;;;;;;15.00;8.10;;;;;;;0.71;83.33;98247.29;108001;1279;22587;-74
2022/01/28 00:59:25;;;;;;;12.90;7.60;;;;;;;0.76;83.25;98244.73;107869;1279;22737;-75
2022/01/28 01:01:52;;;;;;;11.30;5.40;;;;;;;0.79;83.43;98243.27;107943;1279;22716;-75
2022/01/28 01:04:19;;;;;;;10.80;6.60;;;;;;;0.83;83.05;98242.09;107961;1279;22591;-75
2022/01/28 01:06:47;;;;;;;9.80;5.40;;;;;;;0.82;82.81;98239.56;107982;1279;24302;-73
2022/01/28 01:09:13;;;;;;;9.10;5.60;;;;;;;0.82;82.49;98231.17;108005;1279;22729;-78
2022/01/28 01:11:41;;;;;;;8.90;5.50;;;;;;;0.83;82.31;98216.73;107965;1279;23217;-78
2022/01/28 01:14:08;;;;;;;9.80;5.70;;;;;;;0.89;82.23;98209.87;107974;1279;22707;-78
2022/01/28 01:16:56;;;;;;;11.10;6.30;;;;;;;0.92;82.36;98211.63;107748;1279;327737;-74
2022/01/28 01:19:25;;;;;;;9.10;5.40;;;;;;;0.95;82.54;98211.69;107992;1279;22721;-74
2022/01/28 01:21:56;;;;;;;8.00;4.20;;;;;;;0.96;82.36;98208.77;107982;1279;22695;-74
2022/01/28 01:24:28;;;;;;;10.60;5.40;;;;;;;0.97;82.07;98205.82;107942;1280;22569;-74
2022/01/28 01:26:59;;;;;;;8.80;4.90;;;;;;;0.97;81.66;98197.92;107940;1279;24128;-74
2022/01/28 01:29:27;;;;;;;8.00;4.50;;;;;;;0.98;81.49;98211.96;107962;1279;22667;-74
2022/01/28 01:32:01;;;;;;;8.00;5.10;;;;;;;0.98;81.20;98206.80;108073;1281;22678;-74
2022/01/28 01:34:29;;;;;;;10.40;5.80;;;;;;;1.05;80.97;98207.08;108035;1279;22591;-76
2022/01/28 01:36:56;;;;;;;8.60;4.80;;;;;;;1.09;81.19;98213.77;108047;1279;25536;-77
2022/01/28 01:39:26;;;;;;;9.10;4.30;;;;;;;1.12;81.34;98214.40;108033;1279;22556;-78
2022/01/28 01:42:03;;;;;;;9.10;4.70;;;;;;;1.14;81.07;98215.87;107995;1279;22730;-76
2022/01/28 01:52:42;;;;;;;8.70;4.40;;;;;;;1.15;80.28;98204.36;108228;1280;22563;-77
2022/01/28 01:55:10;;;;;;;11.50;4.90;;;;;;;1.20;80.37;98207.94;108238;1280;22589;-76
2022/01/28 01:57:38;;;;;;;8.50;4.40;;;;;;;1.21;80.42;98207.23;108248;1280;22611;-77
2022/01/28 02:00:07;;;;;;;7.90;3.90;;;;;;;1.20;80.65;98202.80;108255;1279;22562;-77
2022/01/28 02:02:33;;;;;;;8.30;4.00;;;;;;;1.20;80.49;98200.91;108243;1281;22556;-77
2022/01/28 02:05:01;;;;;;;7.60;3.30;;;;;;;1.17;80.16;98200.15;108231;1279;22591;-77
2022/01/28 02:07:28;;;;;;;10.70;4.60;;;;;;;1.16;80.10;98207.25;108210;1281;22576;-76
2022/01/28 02:09:55;;;;;;;7.30;3.70;;;;;;;1.12;80.04;98209.39;108224;1281;22542;-77
2022/01/28 02:12:22;;;;;;;6.60;3.50;;;;;;;1.12;79.80;98207.68;108237;1279;22558;-77
2022/01/28 02:14:50;;;;;;;9.90;4.50;;;;;;;1.11;79.57;98203.44;108240;1279;22643;-77
2022/01/28 02:17:17;;;;;;;7.70;3.80;;;;;;;1.13;79.95;98202.88;108220;1281;23966;-76
2022/01/28 02:19:43;;;;;;;7.60;3.80;;;;;;;1.15;80.07;98204.52;108220;1279;22712;-77
2022/01/28 02:22:10;;;;;;;5.60;2.70;;;;;;;1.15;80.28;98206.23;108224;1281;22555;-76
2022/01/28 02:24:40;;;;;;;4.60;2.40;;;;;;;1.14;80.01;98209.18;108202;1279;22599;-77
2022/01/28 02:27:10;;;;;;;5.40;2.60;;;;;;;1.12;79.80;98219.02;108216;1281;22556;-77
2022/01/28 02:29:37;;;;;;;6.80;2.40;;;;;;;1.09;79.69;98222.01;108225;1279;22646;-77
2022/01/28 02:32:09;;;;;;;7.30;2.80;;;;;;;1.09;79.37;98225.80;108220;1279;25323;-76
2022/01/28 02:34:39;;;;;;;5.70;2.30;;;;;;;1.10;79.19;98224.91;108211;1281;22557;-77
2022/01/28 02:37:05;;;;;;;4.80;2.10;;;;;;;1.19;79.01;98211.41;108222;1279;25488;-76
2022/01/28 02:39:33;;;;;;;4.70;2.20;;;;;;;1.26;78.97;98214.09;108215;1280;22571;-77
2022/01/28 02:42:27;;;;;;;5.10;2.10;;;;;;;1.33;78.70;98209.90;108230;1281;22685;-78
2022/01/28 02:44:53;;;;;;;5.50;1.80;;;;;;;1.32;78.39;98208.90;108208;1281;22562;-76
2022/01/28 02:47:32;;;;;;;6.50;2.30;;;;;;;1.35;78.31;98206.91;108222;1279;22675;-75
2022/01/28 02:49:59;;;;;;;4.00;1.60;;;;;;;1.35;77.96;98206.02;108224;1279;22575;-77
2022/01/28 02:52:36;;;;;;;6.40;2.20;;;;;;;1.37;77.42;98201.85;108197;1281;22561;-75
2022/01/28 02:55:09;;;;;;;6.20;2.60;;;;;;;1.42;77.54;98206.50;108218;1279;22562;-76
2022/01/28 02:57:39;;;;;;;4.80;2.10;;;;;;;1.47;77.57;98203.04;108218;1281;22544;-76
2022/01/28 03:00:07;;;;;;;5.80;2.20;;;;;;;1.49;78.02;98200.58;108198;1279;25205;-77
2022/01/28 03:02:34;;;;;;;5.90;2.10;;;;;;;1.49;77.69;98203.34;108217;1281;22701;-77
2022/01/28 03:07:31;;;;;;;3.50;1.40;;;;;;;1.46;76.89;98197.92;108210;1279;22562;-76
2022/01/28 03:12:59;;;;;;;3.70;1.60;;;;;;;1.48;76.98;98200.96;108217;1281;22559;-77
2022/01/28 03:15:22;;;;;;;4.40;1.80;;;;;;;1.54;77.16;98196.98;108234;1281;22570;-77
2022/01/28 03:18:08;;;;;;;4.00;1.50;;;;;;;1.53;77.06;98194.92;108000;1281;25333;-76
2022/01/28 03:23:02;;;;;;;4.20;1.80;;;;;;;1.48;76.96;98188.24;107953;1279;25282;-76
2022/01/28 03:25:29;;;;;;;6.00;1.60;;;;;;;1.46;76.86;98188.82;107938;1279;23609;-75
2022/01/28 03:27:59;;;;;;;4.60;1.60;;;;;;;1.43;76.87;98179.83;107954;1281;22610;-76
2022/01/28 03:30:26;;;;;;;5.00;1.50;;;;;;;1.43;76.90;98181.23;107946;1281;22561;-75
2022/01/28 03:32:53;;;;;;;4.60;1.70;;;;;;;1.49;77.07;98172.10;107955;1281;23026;-76
2022/01/28 03:35:20;;;;;;;4.20;1.50;;;;;;;1.54;76.92;98173.29;107915;1281;22566;-76
2022/01/28 03:37:47;;;;;;;4.60;1.70;;;;;;;1.54;76.62;98173.80;107948;1279;22589;-76
2022/01/28 03:40:19;;;;;;;5.20;1.70;;;;;;;1.50;76.52;98179.27;107935;1281;23228;-76
2022/01/28 03:42:46;;;;;;;5.20;1.70;;;;;;;1.48;76.66;98177.80;107959;1280;22574;-75
2022/01/28 03:45:13;;;;;;;5.00;1.80;;;;;;;1.46;76.48;98181.61;107940;1280;22731;-72
2022/01/28 03:47:40;;;;;;;4.70;1.70;;;;;;;1.46;76.38;98183.67;107932;1279;22593;-73
2022/01/28 03:50:07;;;;;;;6.40;1.80;;;;;;;1.46;76.16;98182.64;107923;1280;22785;-73
2022/01/28 03:52:34;;;;;;;5.40;2.00;;;;;;;1.50;76.63;98184.05;107941;1279;22633;-73
2022/01/28 03:55:02;;;;;;;4.30;1.90;;;;;;;1.50;77.04;98187.83;107935;1279;22649;-73
2022/01/28 03:57:29;;;;;;;4.50;1.70;;;;;;;1.54;77.14;98191.30;107908;1279;22586;-73
2022/01/28 03:59:56;;;;;;;4.80;1.60;;;;;;;1.44;77.50;98193.36;107926;1281;22694;-76
2022/01/28 04:02:27;;;;;;;5.90;2.10;;;;;;;1.40;77.62;98197.63;107931;1279;23145;-76
2022/01/28 04:13:10;;;;;;;5.90;2.50;;;;;;;1.19;79.72;98195.29;107899;1279;22631;-75
2022/01/28 04:15:50;;;;;;;5.80;1.80;;;;;;;1.17;79.89;98193.65;107948;1279;23310;-76
2022/01/28 04:18:17;;;;;;;4.60;1.80;;;;;;;1.13;80.10;98191.89;107929;1279;25366;-75
2022/01/28 04:20:44;;;;;;;6.10;2.10;;;;;;;1.07;80.07;98194.66;107934;1279;22567;-76
2022/01/28 04:23:11;;;;;;;3.80;1.80;;;;;;;1.00;80.08;98197.15;107912;1279;22720;-76
2022/01/28 04:25:38;;;;;;;6.30;2.10;;;;;;;0.96;80.22;98193.67;107920;1279;22706;-75
2022/01/28 04:28:04;;;;;;;7.80;2.60;;;;;;;0.96;80.53;98195.23;107915;1279;23023;-74
2022/01/28 04:30:32;;;;;;;6.20;2.90;;;;;;;0.93;81.08;98202.86;107976;1279;22678;-76
2022/01/28 04:32:58;;;;;;;9.20;3.00;;;;;;;0.87;81.41;98203.90;107942;1279;22743;-76
2022/01/28 04:35:25;;;;;;;5.90;2.10;;;;;;;0.86;81.77;98206.69;108014;1279;22550;-75
2022/01/28 04:40:33;;;;;;;7.00;2.60;;;;;;;0.76;81.95;98208.92;107996;1279;25871;-76
2022/01/28 04:45:40;;;;;;;6.90;2.90;;;;;;;0.69;82.58;98210.52;108028;1279;22727;-76
2022/01/28 04:48:56;;;;;;;7.50;3.10;;;;;;;0.63;83.10;98215.35;108037;1279;22596;-75
2022/01/28 04:51:20;;;;;;;6.90;2.50;;;;;;;0.60;83.27;98222.79;107906;1279;22602;-76
2022/01/28 04:56:32;;;;;;;9.40;3.20;;;;;;;0.50;83.24;98225.34;108039;1279;22955;-75
2022/01/28 05:04:16;;;;;;;8.80;3.50;;;;;;;0.44;83.94;98226.91;108047;1279;25614;-75
2022/01/28 05:07:10;;;;;;;11.40;3.30;;;;;;;0.39;84.18;98230.28;108012;1279;22774;-77
2022/01/28 05:28:50;;;;;;;7.70;3.60;;;;;;;0.28;85.49;98259.91;107377;1285;22575;-75
2022/01/28 05:31:17;;;;;;;7.30;3.80;;;;;;;0.26;85.52;98264.42;107808;1279;22658;-73
2022/01/28 05:33:45;;;;;;;7.00;4.00;;;;;;;0.23;85.24;98270.16;108027;1279;22596;-73
2022/01/28 05:36:12;;;;;;;11.30;5.30;;;;;;;0.25;85.35;98270.14;108140;1279;22623;-74
2022/01/28 05:38:39;;;;;;;11.90;5.50;;;;;;;0.26;85.52;98269.23;108161;1279;24268;-73
2022/01/28 05:41:06;;;;;;;14.30;6.60;;;;;;;0.23;85.72;98272.40;108005;1279;22821;-74
2022/01/28 05:43:34;;;;;;;9.70;3.60;;;;;;;0.22;85.80;98276.55;108047;1279;22635;-73
2022/01/28 05:46:01;;;;;;;12.00;4.30;;;;;;;0.19;85.94;98275.10;108040;1279;25441;-76
2022/01/28 05:48:28;;;;;;;12.30;5.00;;;;;;;0.15;85.93;98277.60;107926;1279;24237;-75
2022/01/28 05:50:55;;;;;;;12.50;4.70;;;;;;;0.10;85.72;98278.25;107997;1279;22571;-74
2022/01/28 05:53:22;;;;;;;11.20;4.20;;;;;;;0.13;85.74;98278.86;108000;1279;22709;-76
2022/01/28 05:55:49;;;;;;;11.10;4.80;;;;;;;0.16;85.85;98277.58;108015;1279;24019;-75
2022/01/28 05:58:16;;;;;;;8.30;4.30;;;;;;;0.13;86.25;98281.10;108027;1279;22629;-76
2022/01/28 06:00:42;;;;;;;9.60;3.00;;;;;;;0.14;86.42;98282.27;108025;1279;22590;-76
2022/01/28 06:03:09;;;;;;;12.10;3.50;;;;;;;0.12;86.59;98280.08;108040;1279;22567;-76
2022/01/28 06:05:36;;;;;;;8.90;3.20;;;;;;;0.10;86.62;98283.21;107994;1279;22595;-76
2022/01/28 06:08:03;;;;;;;10.30;4.00;;;;;;;0.13;86.34;98284.51;108016;1279;22540;-75
2022/01/28 06:10:30;;;;;;;12.70;4.80;;;;;;;0.16;86.59;98288.38;108021;1279;22782;-76
2022/01/28 06:12:57;;;;;;;13.00;6.60;;;;;;;0.18;86.77;98287.96;108054;1279;22553;-74
2022/01/28 06:15:24;;;;;;;10.50;4.00;;;;;;;0.25;86.82;98290.34;108067;1279;22600;-76
2022/01/28 06:17:51;;;;;;;9.70;3.50;;;;;;;0.22;86.88;98293.67;107998;1279;23513;-76
2022/01/28 06:20:19;;;;;;;9.30;3.50;;;;;;;0.20;86.91;98293.54;108017;1279;24421;-77
2022/01/28 06:22:47;;;;;;;8.10;3.70;;;;;;;0.19;86.56;98293.23;108021;1279;22547;-77
2022/01/28 06:25:15;;;;;;;7.60;2.90;;;;;;;0.26;86.53;98295.24;108015;1279;22565;-76
2022/01/28 06:27:43;;;;;;;8.30;4.30;;;;;;;0.32;86.60;98300.40;108480;1279;22556;-74
2022/01/28 06:30:11;;;;;;;16.90;5.80;;;;;;;0.33;86.68;98301.73;108501;1279;22714;-76
2022/01/28 06:32:38;;;;;;;15.40;4.60;;;;;;;0.36;87.00;98301.48;108030;1279;22598;-75
2022/01/28 06:35:09;;;;;;;14.30;5.20;;;;;;;0.35;86.98;98310.91;107958;1279;22580;-74
2022/01/28 06:37:39;;;;;;;9.80;3.30;;;;;;;0.36;86.85;98310.39;107926;1279;24235;-74
2022/01/28 06:40:08;;;;;;;13.30;5.00;;;;;;;0.40;86.50;98311.31;107903;1279;22600;-74
2022/01/28 06:42:35;;;;;;;8.50;3.60;;;;;;;0.45;86.54;98316.79;107800;1279;22570;-76
2022/01/28 06:45:03;;;;;;;15.30;4.70;;;;;;;0.49;86.50;98317.19;107931;1279;25378;-77
2022/01/28 06:47:31;;;;;;;13.50;4.50;;;;;;;0.53;86.57;98323.92;107933;1279;22572;-76
2022/01/28 06:49:58;;;;;;;16.00;5.40;;;;;;;0.54;86.57;98325.79;107974;1279;22637;-77
2022/01/28 06:52:25;;;;;;;14.30;4.10;;;;;;;0.53;86.39;98328.56;107930;1279;22562;-77
2022/01/28 06:54:52;;;;;;;10.50;4.30;;;;;;;0.59;86.31;98329.24;107929;1279;24445;-74
2022/01/28 06:57:19;;;;;;;16.00;5.10;;;;;;;0.64;86.28;98329.92;107933;1279;24052;-75
2022/01/28 06:59:46;;;;;;;8.60;3.40;;;;;;;0.70;86.34;98329.77;107948;1279;22565;-74
2022/01/28 07:02:13;;;;;;;9.90;2.80;;;;;;;0.78;86.01;98328.48;107943;1279;25422;-76
2022/01/28 07:04:40;;;;;;;12.20;3.10;;;;;;;0.80;85.81;98328.59;107926;1279;22629;-77
2022/01/28 07:07:07;;;;;;;7.60;2.50;;;;;;;0.79;85.68;98333.11;107929;1279;24477;-75
2022/01/28 07:09:35;;;;;;;11.40;2.00;;;;;;;0.81;85.47;98330.79;107909;1278;22654;-76
2022/01/28 07:12:03;;;;;;;12.50;2.90;;;;;;;0.92;85.20;98335.60;107941;1279;22574;-75
2022/01/28 07:14:30;;;;;;;9.80;2.70;;;;;;;0.99;84.91;98335.88;107990;1279;22696;-77
2022/01/28 07:16:57;;;;;;;11.30;3.00;;;;;;;1.03;84.77;98341.94;107938;1279;22578;-76
2022/01/28 07:19:24;;;;;;;8.90;2.40;;;;;;;0.99;84.83;98344.78;107941;1279;22569;-77
2022/01/28 07:21:51;;;;;;;10.20;2.80;;;;;;;1.00;84.42;98339.77;107901;1279;22578;-76
2022/01/28 07:24:18;;;;;;;9.00;3.00;;;;;;;0.99;84.32;98344.63;107931;1279;22644;-74
2022/01/28 07:26:46;;;;;;;17.00;4.80;;;;;;;0.98;84.26;98342.60;107950;1279;25389;-76
2022/01/28 07:29:13;;;;;;;14.10;3.30;;;;;;;1.06;84.09;98339.10;107891;1279;22576;-76
2022/01/28 07:31:41;;;;;;;11.60;2.60;;;;;;;1.09;83.87;98343.10;107904;1279;23419;-76
2022/01/28 07:34:08;;;;;;;13.10;3.20;;;;;;;1.15;83.96;98343.95;107920;1279;22563;-76
2022/01/28 07:36:36;;;;;;;17.30;3.90;;;;;;;1.14;83.65;98351.71;107944;1279;23228;-75
2022/01/28 07:39:07;;;;;;;13.40;4.40;;;;;;;1.12;83.73;98354.69;108041;1279;22681;-76
2022/01/28 07:41:34;;;;;;;15.30;4.30;;;;;;;1.13;83.53;98356.54;107931;1279;22678;-77
2022/01/28 07:44:01;;;;;;;14.20;3.40;;;;;;;1.13;83.29;98361.52;107943;1279;22559;-76
2022/01/28 07:46:28;;;;;;;12.00;3.60;;;;;;;1.21;83.20;98364.52;107917;1279;25484;-77
2022/01/28 07:48:56;;;;;;;9.30;2.40;;;;;;;1.29;83.24;98366.51;107949;1279;22609;-77
2022/01/28 07:51:23;;;;;;;9.30;2.80;;;;;;;1.30;82.63;98370.57;108008;1279;22591;-76
2022/01/28 07:53:51;;;;;;;10.40;3.20;;;;;;;1.25;82.62;98377.24;107925;1279;22713;-75
2022/01/28 07:56:18;;;;;;;9.00;3.10;;;;;;;1.25;82.49;98383.77;107970;1279;22632;-75
2022/01/28 07:58:45;;;;;;;9.90;3.30;;;;;;;1.27;82.25;98385.93;107965;1279;22617;-74
2022/01/28 08:01:12;;;;;;;9.90;3.20;;;;;;;1.30;82.16;98389.10;107943;1279;25389;-75
2022/01/28 08:03:39;;;;;;;11.30;3.00;;;;;;;1.36;82.20;98390.62;107959;1279;22605;-75
2022/01/28 08:06:06;;;;;;;15.50;3.70;;;;;;;1.37;82.23;98396.09;107933;1279;22636;-76
2022/01/28 08:08:33;;;;;;;13.00;3.60;;;;;;;1.35;82.22;98394.79;107928;1279;22639;-75
2022/01/28 08:11:00;;;;;;;14.10;4.10;;;;;;;1.33;82.21;98399.30;107925;1279;26702;-74
2022/01/28 08:13:27;;;;;;;15.40;4.70;;;;;;;1.34;82.10;98403.42;107955;1279;22547;-76
2022/01/28 08:15:54;;;;;;;14.70;4.10;;;;;;;1.32;81.94;98409.13;108068;1278;23121;-77
2022/01/28 08:18:21;;;;;;;12.20;3.90;;;;;;;1.34;81.87;98414.19;108104;1279;22587;-76
2022/01/28 08:20:48;;;;;;;9.80;2.70;;;;;;;1.42;81.76;98415.15;107944;1279;22570;-75
2022/01/28 08:23:16;;;;;;;14.20;4.00;;;;;;;1.44;81.79;98420.05;107932;1279;22666;-74
2022/01/28 08:25:43;;;;;;;7.50;2.00;;;;;;;1.47;81.90;98417.75;107933;1279;22648;-76
2022/01/28 08:28:10;;;;;;;10.10;3.10;;;;;;;1.46;81.38;98419.46;107921;1279;22718;-75
2022/01/28 08:30:39;;;;;;;11.90;3.80;;;;;;;1.43;81.20;98421.79;107976;1279;22561;-75
2022/01/28 08:33:06;;;;;;;10.90;2.90;;;;;;;1.42;81.02;98426.80;107930;1279;22624;-74
2022/01/28 08:35:39;;;;;;;11.00;3.50;;;;;;;1.49;80.86;98429.00;107919;1279;22563;-75
2022/01/28 08:38:15;;;;;;;10.80;2.70;;;;;;;1.56;80.65;98429.27;107938;1279;22561;-73
2022/01/28 08:40:42;;;;;;;10.40;2.60;;;;;;;1.58;80.43;98426.98;107919;1279;27838;-76
2022/01/28 08:43:09;;;;;;;11.20;2.70;;;;;;;1.59;80.19;98434.34;107944;1279;23618;-74
2022/01/28 08:45:37;;;;;;;7.10;2.50;;;;;;;1.57;80.23;98436.46;107944;1279;25361;-75
2022/01/28 08:48:04;;;;;;;8.70;2.30;;;;;;;1.54;80.43;98442.90;107918;1279;22562;-75
2022/01/28 08:50:31;;;;;;;13.10;3.70;;;;;;;1.59;80.38;98443.41;107920;1279;22547;-77
2022/01/28 08:52:58;;;;;;;11.80;3.60;;;;;;;1.62;80.56;98450.88;107924;1279;26298;-76
2022/01/28 08:55:25;;;;;;;15.20;3.90;;;;;;;1.63;80.85;98453.41;107945;1279;22744;-76
2022/01/28 08:57:53;;;;;;;7.60;2.20;;;;;;;1.64;80.99;98459.04;107943;1279;23418;-76
2022/01/28 09:00:22;;;;;;;11.20;3.30;;;;;;;1.60;80.93;98461.94;107960;1279;22555;-76
2022/01/28 09:02:50;;;;;;;10.80;3.30;;;;;;;1.56;80.93;98467.37;108041;1279;23922;-75
2022/01/28 09:05:18;;;;;;;11.60;4.20;;;;;;;1.57;81.00;98470.61;108033;1279;25353;-75
2022/01/28 09:07:45;;;;;;;10.90;3.10;;;;;;;1.64;81.07;98469.19;107924;1279;25400;-76
2022/01/28 09:10:18;;;;;;;13.30;3.90;;;;;;;1.70;81.23;98469.17;107915;1279;22671;-75
2022/01/28 09:12:59;;;;;;;14.20;4.20;;;;;;;1.73;81.47;98476.27;107923;1279;22634;-75
2022/01/28 09:15:26;;;;;;;14.90;4.90;;;;;;;1.76;81.20;98473.61;107940;1279;22722;-75
2022/01/28 09:17:53;;;;;;;11.30;3.40;;;;;;;1.71;81.27;98482.01;108037;1279;24779;-75
2022/01/28 09:20:20;;;;;;;8.80;2.90;;;;;;;1.71;81.17;98480.77;107955;1279;22580;-75
2022/01/28 09:22:47;;;;;;;18.50;4.30;;;;;;;1.74;81.05;98485.85;107961;1279;22706;-75
2022/01/28 09:25:15;;;;;;;16.90;4.60;;;;;;;1.75;81.18;98488.40;107922;1279;22662;-75
2022/01/28 09:27:42;;;;;;;14.70;3.90;;;;;;;1.79;81.19;98491.89;107949;1279;22720;-74
2022/01/28 09:30:09;;;;;;;10.80;3.70;;;;;;;1.72;81.20;98495.52;107926;1279;22604;-75
2022/01/28 09:32:36;;;;;;;8.60;3.30;;;;;;;1.66;81.23;98503.61;107927;1279;22577;-75
2022/01/28 09:35:04;;;;;;;19.70;4.10;;;;;;;1.63;81.26;98505.95;107980;1279;22748;-74
2022/01/28 09:37:30;;;;;;;12.80;3.80;;;;;;;1.64;81.24;98505.23;108019;1279;22776;-74
2022/01/28 09:39:57;;;;;;;17.10;5.30;;;;;;;1.71;81.42;98508.98;108006;1279;22568;-76
2022/01/28 09:42:28;;;;;;;16.20;5.50;;;;;;;1.65;81.84;98513.96;107998;1279;22568;-75
2022/01/28 09:44:58;;;;;;;15.20;4.10;;;;;;;1.63;81.82;98514.52;108049;1279;22715;-75
2022/01/28 09:47:25;;;;;;;13.00;4.20;;;;;;;1.60;81.46;98521.17;108029;1279;25367;-76
2022/01/28 09:49:53;;;;;;;17.70;5.00;;;;;;;1.58;81.53;98517.63;108024;1279;22562;-77
2022/01/28 09:52:20;;;;;;;16.80;4.20;;;;;;;1.60;81.46;98524.25;108037;1279;22717;-76
2022/01/28 09:54:47;;;;;;;10.50;3.30;;;;;;;1.63;81.62;98528.95;108043;1279;22557;-76
2022/01/28 09:57:18;;;;;;;12.40;3.20;;;;;;;1.63;81.69;98524.14;108042;1279;22654;-80
2022/01/28 09:59:45;;;;;;;14.20;4.60;;;;;;;1.60;81.74;98532.14;108033;1279;22568;-75
2022/01/28 10:02:13;;;;;;;11.90;3.80;;;;;;;1.57;81.75;98530.02;108125;1279;22537;-77
2022/01/28 10:04:40;;;;;;;12.90;3.60;;;;;;;1.58;81.71;98535.31;108016;1279;22586;-76
2022/01/28 10:07:16;;;;;;;12.50;3.30;;;;;;;1.63;81.75;98536.86;108039;1279;22627;-77
2022/01/28 10:09:57;;;;;;;14.30;4.20;;;;;;;1.63;81.91;98546.98;108028;1279;22638;-78
2022/01/28 10:12:39;;;;;;;8.30;2.70;;;;;;;1.63;82.27;98550.05;108051;1279;22562;-77
2022/01/28 10:15:28;;;;;;;13.00;3.80;;;;;;;1.64;82.03;98551.25;108025;1279;26244;-74
2022/01/28 10:18:00;;;;;;;12.30;3.10;;;;;;;1.55;82.35;98553.75;108000;1279;22553;-76
2022/01/28 10:20:28;;;;;;;17.10;5.30;;;;;;;1.58;82.28;98561.89;108058;1279;22702;-75
2022/01/28 10:22:58;;;;;;;14.10;4.80;;;;;;;1.60;82.61;98564.06;108321;1279;25550;-75
2022/01/28 10:25:34;;;;;;;12.40;3.20;;;;;;;1.65;82.93;98562.21;107990;1279;22627;-74
2022/01/28 10:28:08;;;;;;;12.90;4.00;;;;;;;1.57;82.88;98566.39;108027;1279;26350;-73
2022/01/28 10:30:38;;;;;;;12.10;3.20;;;;;;;1.53;82.90;98570.97;108049;1279;23189;-75
2022/01/28 10:33:20;;;;;;;9.80;2.80;;;;;;;1.48;82.85;98573.86;108050;1279;22639;-76
2022/01/28 10:35:56;;;;;;;13.00;4.20;;;;;;;1.52;83.02;98577.88;107954;1279;22559;-77
2022/01/28 10:38:38;;;;;;;13.40;4.30;;;;;;;1.48;83.40;98581.40;107937;1279;22565;-77
2022/01/28 10:41:07;;;;;;;11.40;4.00;;;;;;;1.50;83.71;98582.38;107912;1279;22547;-76
2022/01/28 10:43:51;;;;;;;14.60;4.80;;;;;;;1.44;83.61;98584.48;107947;1279;22556;-76
2022/01/28 10:46:29;;;;;;;10.80;4.20;;;;;;;1.42;83.46;98592.92;107944;1279;25483;-76
2022/01/28 10:49:02;;;;;;;12.80;3.70;;;;;;;1.41;83.33;98592.09;108117;1279;24241;-78
2022/01/28 10:52:02;;;;;;;12.00;4.30;;;;;;;1.38;83.82;98594.91;108137;1279;24387;-78
2022/01/28 10:54:29;;;;;;;11.90;4.80;;;;;;;1.47;83.89;98598.61;108004;1279;22642;-76
2022/01/28 10:57:01;;;;;;;8.60;3.80;;;;;;;1.54;83.94;98598.40;108141;1279;22605;-77
2022/01/28 10:59:38;;;;;;;11.80;4.10;;;;;;;1.48;83.96;98603.02;108155;1279;22553;-78
2022/01/28 11:02:06;;;;;;;11.10;4.40;;;;;;;1.46;83.95;98604.11;108150;1279;22704;-76
2022/01/28 11:04:34;;;;;;;9.80;4.00;;;;;;;1.44;84.18;98602.14;108200;1279;22553;-77
2022/01/28 11:07:03;;;;;;;17.60;5.10;;;;;;;1.43;84.13;98606.45;108217;1279;22559;-76
2022/01/28 11:09:30;;;;;;;18.00;6.60;;;;;;;1.47;84.28;98605.80;108205;1279;22846;-78
2022/01/28 11:11:58;;;;;;;15.50;5.80;;;;;;;1.52;84.29;98607.90;108226;1279;25446;-76
2022/01/28 11:14:25;;;;;;;12.00;5.30;;;;;;;1.54;84.44;98610.05;108218;1279;24451;-77
2022/01/28 11:16:52;;;;;;;12.50;5.00;;;;;;;1.54;84.64;98614.18;108207;1279;22574;-77
2022/01/28 11:19:22;;;;;;;20.70;7.20;;;;;;;1.50;84.62;98610.70;108223;1279;22645;-76
2022/01/28 11:21:56;;;;;;;10.50;5.70;;;;;;;1.49;84.48;98612.95;108218;1279;25310;-78
2022/01/28 11:24:39;;;;;;;13.50;5.20;;;;;;;1.47;84.37;98621.42;108202;1279;22517;-78
2022/01/28 11:27:27;;;;;;;17.10;7.10;;;;;;;1.47;84.19;98620.23;108211;1279;22574;-77
2022/01/28 11:30:15;;;;;;;15.90;5.80;;;;;;;1.53;84.27;98619.02;108230;1279;22643;-76
2022/01/28 11:33:00;;;;;;;12.40;6.80;;;;;;;1.55;84.52;98623.59;108212;1279;22584;-78
2022/01/28 11:35:34;;;;;;;15.30;5.80;;;;;;;1.59;84.57;98630.88;108218;1279;22652;-78
2022/01/28 11:38:24;;;;;;;18.40;8.20;;;;;;;1.53;84.86;98635.14;108202;1279;22566;-78
2022/01/28 11:40:55;;;;;;;16.50;7.00;;;;;;;1.54;84.62;98630.85;108224;1279;25447;-77
2022/01/28 11:43:27;;;;;;;17.70;6.70;;;;;;;1.50;84.45;98635.08;108219;1279;22554;-78
2022/01/28 11:46:38;;;;;;;21.20;8.40;;;;;;;1.52;84.46;98638.64;108230;1279;22650;-78
2022/01/28 11:49:07;;;;;;;14.60;5.60;;;;;;;1.59;84.35;98639.63;108105;1279;22559;-78
2022/01/28 11:51:38;;;;;;;16.70;6.90;;;;;;;1.62;84.82;98638.66;108210;1279;25501;-77
2022/01/28 11:54:07;;;;;;;15.10;5.50;;;;;;;1.63;84.99;98642.07;108211;1279;22597;-77
2022/01/28 11:57:02;;;;;;;16.10;5.90;;;;;;;1.58;85.01;98642.23;108224;1279;22624;-78
2022/01/28 11:59:30;;;;;;;12.90;5.00;;;;;;;1.58;84.84;98647.55;108213;1279;22565;-78
2022/01/28 12:01:57;;;;;;;11.20;4.80;;;;;;;1.52;84.56;98649.94;108219;1279;25304;-77
2022/01/28 12:04:31;;;;;;;13.00;4.60;;;;;;;1.51;84.62;98652.38;108198;1279;24232;-78
2022/01/28 12:07:18;;;;;;;11.20;4.30;;;;;;;1.58;84.56;98658.03;108221;1279;25329;-78
2022/01/28 12:09:52;;;;;;;14.10;5.20;;;;;;;1.56;84.72;98658.08;108224;1279;25326;-77
2022/01/28 12:12:24;;;;;;;14.70;5.80;;;;;;;1.53;85.04;98662.80;108211;1279;22559;-79
2022/01/28 12:15:24;;;;;;;16.10;5.90;;;;;;;1.53;85.13;98666.23;108232;1279;22569;-78
2022/01/28 12:17:50;;;;;;;12.20;4.70;;;;;;;1.57;84.91;98670.23;108216;1279;22633;-78
2022/01/28 12:20:22;;;;;;;15.00;4.60;;;;;;;1.51;84.93;98675.20;108241;1279;22588;-78
2022/01/28 12:23:25;;;;;;;17.90;7.40;;;;;;;1.53;84.94;98678.92;108207;1277;25418;-78
2022/01/28 12:25:57;;;;;;;20.90;7.20;;;;;;;1.59;84.99;98682.22;108193;1279;22644;-77
2022/01/28 12:28:43;;;;;;;13.30;5.60;;;;;;;1.59;85.20;98691.13;108231;1279;22728;-77
2022/01/28 12:31:21;;;;;;;15.60;6.60;;;;;;;1.66;85.48;98693.66;108234;1279;22642;-79
2022/01/28 12:33:51;;;;;;;15.40;6.80;;;;;;;1.64;85.31;98698.54;108213;1279;22680;-78
2022/01/28 12:36:24;;;;;;;16.50;8.00;;;;;;;1.64;85.23;98705.39;108251;1279;22719;-78
2022/01/28 12:39:00;;;;;;;;;;;;;;;1.65;84.94;98708.96;108231;1279;22620;-78
2022/01/28 12:41:30;;;;;;;11.40;5.40;;;;;;;1.65;84.76;98709.64;108207;1278;25497;-78
2022/01/28 12:43:57;;;;;;;22.10;8.70;;;;;;;1.68;84.69;98713.02;108214;1279;22593;-78
2022/01/28 12:46:26;;;;;;;13.40;5.60;;;;;;;1.72;84.81;98714.09;108229;1279;22550;-77
2022/01/28 12:48:54;;;;;;;19.20;4.70;;;;;;;1.74;84.94;98715.23;108195;1279;22564;-78
2022/01/28 12:51:23;;;;;;;11.70;4.90;;;;;;;1.78;85.27;98723.36;108220;1279;22629;-75
2022/01/28 12:53:55;;;;;;;12.20;3.40;;;;;;;1.78;85.23;98729.55;108223;1279;22560;-78
2022/01/28 12:56:31;;;;;;;13.50;4.10;;;;;;;1.77;85.18;98734.57;108219;1279;22518;-76
2022/01/28 12:59:00;;;;;;;9.60;3.40;;;;;;;1.76;84.91;98739.22;108228;1279;25323;-75
2022/01/28 13:01:27;;;;;;;15.50;3.90;;;;;;;1.74;84.80;98741.67;108225;1279;22630;-79
2022/01/28 13:04:23;;;;;;;14.90;4.10;;;;;;;1.75;84.78;98741.64;108218;1279;22659;-78